createdAt,value
2023-03-27T00:03:06.234Z,7.41
2023-03-27T00:08:09.463Z,7.40
2023-03-27T00:13:12.069Z,7.40
2023-03-27T00:18:15.720Z,7.40
2023-03-27T00:23:20.098Z,7.41
2023-03-27T00:28:22.372Z,7.42
2023-03-27T00:33:25.995Z,7.45
2023-03-27T00:38:29.607Z,7.46
2023-03-27T00:43:37.231Z,7.48
2023-03-27T00:48:39.767Z,7.47
2023-03-27T00:53:54.140Z,7.47
2023-03-27T00:59:08.388Z,7.44
2023-03-27T01:04:11.012Z,7.42
2023-03-27T01:09:20.341Z,7.41
2023-03-27T01:14:47.936Z,7.42
2023-03-27T01:20:26.104Z,7.41
2023-03-27T01:26:00.728Z,7.40
2023-03-27T01:31:52.108Z,7.39
2023-03-27T01:37:30.252Z,7.36
2023-03-27T01:43:11.766Z,7.34
2023-03-27T01:48:25.717Z,7.32
2023-03-27T01:53:46.707Z,7.29
2023-03-27T01:58:55.624Z,7.26
2023-03-27T02:04:03.071Z,7.24
2023-03-27T02:09:23.246Z,7.23
2023-03-27T02:14:34.809Z,7.24
2023-03-27T02:19:56.234Z,7.22
2023-03-27T02:25:01.455Z,7.22
2023-03-27T02:30:17.354Z,7.21
2023-03-27T02:35:29.518Z,7.20
2023-03-27T02:40:47.597Z,7.20
2023-03-27T02:46:34.185Z,7.21
2023-03-27T02:51:48.046Z,7.22
2023-03-27T02:57:01.648Z,7.23
2023-03-27T03:02:25.778Z,7.23
2023-03-27T03:07:43.608Z,7.23
2023-03-27T03:12:57.005Z,7.22
2023-03-27T03:18:05.653Z,7.22
2023-03-27T03:23:09.174Z,7.24
2023-03-27T03:28:11.535Z,7.25
2023-03-27T03:33:19.645Z,7.26
2023-03-27T03:38:38.904Z,7.25
2023-03-27T03:43:48.035Z,7.23
2023-03-27T03:48:53.012Z,7.15
2023-03-27T03:54:09.346Z,7.06
2023-03-27T03:59:18.837Z,6.99
2023-03-27T04:04:43.768Z,6.94
2023-03-27T04:10:01.732Z,6.91
2023-03-27T04:15:26.424Z,6.87
2023-03-27T04:21:14.717Z,6.83
2023-03-27T04:26:17.892Z,6.81
2023-03-27T04:31:49.504Z,6.81
2023-03-27T04:37:23.408Z,6.80
2023-03-27T04:42:45.656Z,6.80
2023-03-27T04:48:04.203Z,6.78
2023-03-27T04:53:20.572Z,6.79
2023-03-27T04:58:37.303Z,6.80
2023-03-27T05:03:49.385Z,6.80
2023-03-27T05:09:01.533Z,6.80
2023-03-27T05:14:10.120Z,6.82
2023-03-27T05:19:13.328Z,6.85
2023-03-27T05:24:20.409Z,6.87
2023-03-27T05:29:24.008Z,6.88
2023-03-27T05:34:34.750Z,6.92
2023-03-27T05:39:41.398Z,6.96
2023-03-27T05:44:56.660Z,7.01
2023-03-27T05:50:10.139Z,7.05
2023-03-27T05:55:23.665Z,7.07
2023-03-27T06:00:42.108Z,7.09
2023-03-27T06:06:01.094Z,7.15
2023-03-27T06:11:15.278Z,7.21
2023-03-27T06:16:35.922Z,7.29
2023-03-27T06:21:47.270Z,7.36
2023-03-27T06:26:59.452Z,7.42
2023-03-27T06:32:27.685Z,7.49
2023-03-27T06:37:37.062Z,7.55
2023-03-27T06:42:57.411Z,7.62
2023-03-27T06:48:34.867Z,7.68
2023-03-27T06:53:57.082Z,7.71
2023-03-27T06:59:03.116Z,7.74
2023-03-27T07:04:16.763Z,7.76
2023-03-27T07:10:02.352Z,7.78
2023-03-27T07:15:27.883Z,7.81
2023-03-27T07:21:16.737Z,7.79
2023-03-27T07:26:29.674Z,7.75
2023-03-27T07:32:09.279Z,7.66
2023-03-27T07:37:34.241Z,7.56
2023-03-27T07:43:48.452Z,7.39
2023-03-27T07:49:39.460Z,7.25
2023-03-27T07:55:18.298Z,7.10
2023-03-27T08:01:21.985Z,6.91
2023-03-27T08:07:22.041Z,6.70
2023-03-27T08:13:27.184Z,6.54
2023-03-27T08:19:01.132Z,6.34
2023-03-27T08:24:36.497Z,6.06
2023-03-27T08:30:41.444Z,5.75
2023-03-27T08:36:20.302Z,5.28
2023-03-27T08:41:55.022Z,4.91
2023-03-27T08:47:25.832Z,4.57
2023-03-27T08:52:58.236Z,4.25
2023-03-27T08:58:24.315Z,4.01
2023-03-27T09:03:52.255Z,3.81
2023-03-27T09:09:55.542Z,3.55
2023-03-27T09:16:04.445Z,3.25
2023-03-27T09:21:45.040Z,3.08
2023-03-27T09:27:06.349Z,2.96
2023-03-27T09:33:17.502Z,2.82
2023-03-27T09:38:45.469Z,2.48
2023-03-27T09:44:11.418Z,2.30
2023-03-27T09:49:29.936Z,2.11
2023-03-27T09:55:02.937Z,1.95
2023-03-27T10:00:33.516Z,1.83
2023-03-27T10:05:39.294Z,1.83
2023-03-27T10:10:56.073Z,1.81
2023-03-27T10:16:40.043Z,1.77
2023-03-27T10:21:47.814Z,1.72
2023-03-27T10:27:14.064Z,1.66
2023-03-27T10:32:50.230Z,1.66
2023-03-27T10:38:22.464Z,1.67
2023-03-27T10:43:46.354Z,1.71
2023-03-27T10:50:07.834Z,1.77
2023-03-27T10:55:36.888Z,1.88
2023-03-27T11:01:12.040Z,2.00
2023-03-27T11:06:41.877Z,2.13
2023-03-27T11:12:05.071Z,2.36
2023-03-27T11:17:24.007Z,2.60
2023-03-27T11:23:24.664Z,2.73
2023-03-27T11:29:04.140Z,2.73
2023-03-27T11:34:28.780Z,2.78
2023-03-27T11:40:12.744Z,2.79
2023-03-27T11:45:21.389Z,2.83
2023-03-27T11:50:53.202Z,2.87
2023-03-27T11:56:37.424Z,2.90
2023-03-27T12:03:04.122Z,2.98
2023-03-27T12:08:51.520Z,2.95
2023-03-27T12:14:50.661Z,2.90
2023-03-27T12:20:41.639Z,2.89
2023-03-27T12:26:50.516Z,2.87
2023-03-27T12:32:44.215Z,2.90
2023-03-27T12:37:53.796Z,2.96
2023-03-27T12:43:14.793Z,2.95
2023-03-27T12:49:17.775Z,2.91
2023-03-27T12:55:52.306Z,2.78
2023-03-27T13:01:51.724Z,2.71
2023-03-27T13:07:52.752Z,2.68
2023-03-27T13:14:04.903Z,2.71
2023-03-27T13:20:06.458Z,2.75
2023-03-27T13:26:34.275Z,2.73
2023-03-27T13:32:42.583Z,2.86
2023-03-27T13:38:22.344Z,3.09
2023-03-27T13:43:54.115Z,3.20
2023-03-27T13:50:17.222Z,3.24
2023-03-27T13:56:45.694Z,3.28
2023-03-27T14:02:27.230Z,3.28
2023-03-27T14:08:15.637Z,3.33
2023-03-27T14:14:19.907Z,3.39
2023-03-27T14:19:57.629Z,3.47
2023-03-27T14:25:42.272Z,3.50
2023-03-27T14:31:04.683Z,3.52
2023-03-27T14:36:34.533Z,3.53
2023-03-27T14:42:01.532Z,3.50
2023-03-27T14:47:12.116Z,3.47
2023-03-27T14:52:32.736Z,3.47
2023-03-27T14:58:11.039Z,3.53
2023-03-27T15:03:21.674Z,3.64
2023-03-27T15:08:39.369Z,3.67
2023-03-27T15:14:30.254Z,3.58
2023-03-27T15:19:45.738Z,3.47
2023-03-27T15:25:02.560Z,3.41
2023-03-27T15:30:23.681Z,3.47
2023-03-27T15:35:38.424Z,3.55
2023-03-27T15:40:58.541Z,3.57
2023-03-27T15:46:24.714Z,3.61
2023-03-27T15:51:35.252Z,3.65
2023-03-27T15:56:47.363Z,3.60
2023-03-27T16:02:11.612Z,3.46
2023-03-27T16:07:49.797Z,3.34
2023-03-27T16:13:35.390Z,3.29
2023-03-27T16:18:45.004Z,3.29
2023-03-27T16:23:49.910Z,3.34
2023-03-27T16:28:57.780Z,3.34
2023-03-27T16:34:00.212Z,3.33
2023-03-27T16:39:04.216Z,3.25
2023-03-27T16:44:09.599Z,3.17
2023-03-27T16:49:13.193Z,3.09
2023-03-27T16:54:15.919Z,2.97
2023-03-27T16:59:23.106Z,2.85
2023-03-27T17:04:25.873Z,2.74
2023-03-27T17:09:32.352Z,2.59
2023-03-27T17:14:40.589Z,2.41
2023-03-27T17:19:45.912Z,2.22
2023-03-27T17:24:56.641Z,2.07
2023-03-27T17:30:00.379Z,1.93
2023-03-27T17:35:05.307Z,1.80
2023-03-27T17:40:15.883Z,1.68
2023-03-27T17:45:18.502Z,1.58
2023-03-27T17:50:20.684Z,1.49
2023-03-27T17:55:23.777Z,1.38
2023-03-27T18:00:26.146Z,1.29
2023-03-27T18:05:29.143Z,1.23
2023-03-27T18:10:35.320Z,1.18
2023-03-27T18:15:40.871Z,1.11
2023-03-27T18:20:51.071Z,1.09
2023-03-27T18:25:53.620Z,1.05
2023-03-27T18:31:08.247Z,1.03
2023-03-27T18:36:15.430Z,1.00
2023-03-27T18:41:22.237Z,0.97
2023-03-27T18:46:28.272Z,0.91
2023-03-27T18:51:45.627Z,0.86
2023-03-27T18:56:48.851Z,0.81
2023-03-27T19:01:51.437Z,0.76
2023-03-27T19:06:59.516Z,0.70
2023-03-27T19:12:02.579Z,0.65
2023-03-27T19:17:33.178Z,0.62
2023-03-27T19:22:53.519Z,0.57
2023-03-27T19:28:07.279Z,0.52
2023-03-27T19:33:14.622Z,0.49
2023-03-27T19:38:17.297Z,0.46
2023-03-27T19:43:21.604Z,0.43
2023-03-27T19:48:25.232Z,0.41
2023-03-27T19:53:28.617Z,0.40
2023-03-27T19:58:31.490Z,0.35
2023-03-27T20:03:38.607Z,0.30
2023-03-27T20:08:42.359Z,0.26
2023-03-27T20:13:56.888Z,0.20
2023-03-27T20:19:05.315Z,0.14
2023-03-27T20:24:10.508Z,0.08
2023-03-27T20:29:18.769Z,0.02
2023-03-27T20:34:22.509Z,-0.02
2023-03-27T20:39:28.622Z,-0.06
2023-03-27T20:44:36.554Z,-0.11
2023-03-27T20:49:43.133Z,-0.19
2023-03-27T20:54:48.135Z,-0.25
2023-03-27T20:59:59.086Z,-0.33
2023-03-27T21:05:02.699Z,-0.41
2023-03-27T21:10:11.200Z,-0.48
2023-03-27T21:15:15.905Z,-0.55
2023-03-27T21:20:19.075Z,-0.60
2023-03-27T21:25:22.348Z,-0.66
2023-03-27T21:30:46.198Z,-0.71
2023-03-27T21:36:12.884Z,-0.76
2023-03-27T21:41:21.799Z,-0.83
2023-03-27T21:46:29.115Z,-0.91
2023-03-27T21:51:37.521Z,-1.00
2023-03-27T21:56:40.046Z,-1.11
2023-03-27T22:01:44.809Z,-1.22
2023-03-27T22:06:51.894Z,-1.33
2023-03-27T22:12:01.445Z,-1.44
2023-03-27T22:17:04.095Z,-1.56
2023-03-27T22:22:06.442Z,-1.68
2023-03-27T22:27:08.943Z,-1.78
2023-03-27T22:32:11.774Z,-1.88
2023-03-27T22:37:25.963Z,-1.97
2023-03-27T22:42:32.397Z,-2.05
2023-03-27T22:47:45.834Z,-2.13
2023-03-27T22:52:48.610Z,-2.20
2023-03-27T22:57:51.378Z,-2.25
2023-03-27T23:02:57.785Z,-2.27
2023-03-27T23:08:03.431Z,-2.28
2023-03-27T23:13:10.719Z,-2.27
2023-03-27T23:18:12.719Z,-2.26
2023-03-27T23:23:19.327Z,-2.27
2023-03-27T23:28:23.162Z,-2.29
2023-03-27T23:33:26.263Z,-2.33
2023-03-27T23:38:45.453Z,-2.38
2023-03-27T23:43:51.405Z,-2.43
2023-03-27T23:49:06.261Z,-2.46
2023-03-27T23:54:32.981Z,-2.52
2023-03-27T23:59:38.158Z,-2.56
